PRIVATE WETTERSTATION BILLIGHEIM-ALLFELD                       ZURCK
Wetterdaten: Freitag, 01.04.2022
Datum Zeit Temp. A. Temp. A. min Temp. A. max Feuchte A. Luftdruck Regen Wind Richtung Richtung Sonnenschein ET Solar Taupunkt Windchill Windben Empfang
01.04.2022 00:00 4,3 C 4,3 C 4,3 C 91 % 996,0 hPa 0,2 l/m 0,0 km/h (0 Bft) N 0 0 min 0,000 mm 0 W/m 3,0 C 4,3 C 0,0 km/h (0 Bft) 100 %
01.04.2022 00:10 4,2 C 4,2 C 4,3 C 91 % 996,1 hPa 0,2 l/m 0,0 km/h (0 Bft) N-NW 337 0 min 0,000 mm 0 W/m 2,9 C 4,2 C 3,2 km/h (1 Bft) 100 %
01.04.2022 00:20 4,1 C 4,1 C 4,2 C 91 % 996,2 hPa 0,2 l/m 0,0 km/h (0 Bft) N 360 0 min 0,000 mm 0 W/m 2,8 C 4,1 C 4,8 km/h (1 Bft) 100 %
01.04.2022 00:30 4,0 C 4,0 C 4,1 C 91 % 996,0 hPa 0,2 l/m 0,0 km/h (0 Bft) N 0 0 min 0,000 mm 0 W/m 2,7 C 4,0 C 0,0 km/h (0 Bft) 100 %
01.04.2022 00:40 3,9 C 3,9 C 4,0 C 91 % 996,0 hPa 0,2 l/m 0,0 km/h (0 Bft) N 360 0 min 0,000 mm 0 W/m 2,6 C 3,9 C 6,4 km/h (2 Bft) 100 %
01.04.2022 00:50 3,8 C 3,8 C 3,9 C 91 % 996,0 hPa 0,2 l/m 0,0 km/h (0 Bft) N 0 0 min 0,000 mm 0 W/m 2,5 C 3,8 C 0,0 km/h (0 Bft) 100 %
01.04.2022 01:00 3,8 C 3,8 C 3,9 C 91 % 996,1 hPa 0,2 l/m 0,0 km/h (0 Bft) N 0 0 min 0,000 mm 0 W/m 2,5 C 3,8 C 0,0 km/h (0 Bft) 100 %
01.04.2022 01:10 3,8 C 3,8 C 3,8 C 91 % 996,1 hPa 0,2 l/m 0,0 km/h (0 Bft) N 0 0 min 0,000 mm 0 W/m 2,5 C 3,8 C 0,0 km/h (0 Bft) 100 %
01.04.2022 01:20 3,8 C 3,7 C 3,8 C 91 % 996,0 hPa 0,2 l/m 0,0 km/h (0 Bft) N 360 0 min 0,000 mm 0 W/m 2,5 C 3,8 C 6,4 km/h (2 Bft) 100 %
01.04.2022 01:30 3,7 C 3,7 C 3,8 C 91 % 996,0 hPa 0,2 l/m 0,0 km/h (0 Bft) N 360 0 min 0,000 mm 0 W/m 2,4 C 3,7 C 6,4 km/h (2 Bft) 100 %
01.04.2022 01:40 3,6 C 3,6 C 3,7 C 91 % 996,1 hPa 0,2 l/m 1,6 km/h (1 Bft) N-NW 337 0 min 0,000 mm 0 W/m 2,3 C 3,6 C 8,0 km/h (2 Bft) 100 %
01.04.2022 01:50 3,5 C 3,5 C 3,6 C 91 % 996,1 hPa 0,2 l/m 0,0 km/h (0 Bft) N-NW 337 0 min 0,000 mm 0 W/m 2,2 C 3,5 C 4,8 km/h (1 Bft) 100 %
01.04.2022 02:00 3,4 C 3,4 C 3,5 C 91 % 996,3 hPa 0,0 l/m 0,0 km/h (0 Bft) N 360 0 min 0,000 mm 0 W/m 2,1 C 3,4 C 6,4 km/h (2 Bft) 100 %
01.04.2022 02:10 3,3 C 3,3 C 3,4 C 91 % 996,3 hPa 0,0 l/m 0,0 km/h (0 Bft) N 0 0 min 0,000 mm 0 W/m 2,0 C 3,3 C 0,0 km/h (0 Bft) 100 %
01.04.2022 02:20 3,3 C 3,2 C 3,3 C 91 % 996,3 hPa 0,2 l/m 0,0 km/h (0 Bft) N 0 0 min 0,000 mm 0 W/m 2,0 C 3,3 C 0,0 km/h (0 Bft) 100 %
01.04.2022 02:30 3,2 C 3,2 C 3,3 C 91 % 996,3 hPa 0,2 l/m 0,0 km/h (0 Bft) N 0 0 min 0,000 mm 0 W/m 1,9 C 3,2 C 0,0 km/h (0 Bft) 100 %
01.04.2022 02:40 3,2 C 3,2 C 3,2 C 91 % 996,4 hPa 0,0 l/m 0,0 km/h (0 Bft) N 0 0 min 0,000 mm 0 W/m 1,9 C 3,2 C 0,0 km/h (0 Bft) 100 %
01.04.2022 02:50 3,2 C 3,2 C 3,2 C 91 % 996,4 hPa 0,2 l/m 0,0 km/h (0 Bft) N 0 0 min 0,000 mm 0 W/m 1,9 C 3,2 C 0,0 km/h (0 Bft) 100 %
01.04.2022 03:00 3,1 C 3,1 C 3,2 C 91 % 996,3 hPa 0,2 l/m 0,0 km/h (0 Bft) N 360 0 min 0,000 mm 0 W/m 1,8 C 3,1 C 4,8 km/h (1 Bft) 100 %
01.04.2022 03:10 3,1 C 3,1 C 3,1 C 91 % 996,4 hPa 0,2 l/m 0,0 km/h (0 Bft) N 0 0 min 0,000 mm 0 W/m 1,8 C 3,1 C 0,0 km/h (0 Bft) 99 %
01.04.2022 03:20 2,9 C 2,9 C 3,1 C 91 % 996,3 hPa 0,2 l/m 0,0 km/h (0 Bft) N 360 0 min 0,000 mm 0 W/m 1,6 C 2,9 C 4,8 km/h (1 Bft) 100 %
01.04.2022 03:30 2,8 C 2,8 C 2,9 C 91 % 996,3 hPa 0,2 l/m 0,0 km/h (0 Bft) N 0 0 min 0,000 mm 0 W/m 1,5 C 2,8 C 0,0 km/h (0 Bft) 100 %
01.04.2022 03:40 2,8 C 2,8 C 2,8 C 91 % 996,3 hPa 0,0 l/m 0,0 km/h (0 Bft) N 0 0 min 0,000 mm 0 W/m 1,5 C 2,8 C 0,0 km/h (0 Bft) 100 %
01.04.2022 03:50 2,8 C 2,8 C 2,8 C 91 % 996,3 hPa 0,2 l/m 0,0 km/h (0 Bft) N 360 0 min 0,000 mm 0 W/m 1,5 C 2,8 C 4,8 km/h (1 Bft) 100 %
01.04.2022 04:00 2,7 C 2,7 C 2,8 C 91 % 996,2 hPa 0,0 l/m 0,0 km/h (0 Bft) N 360 0 min 0,000 mm 0 W/m 1,4 C 2,7 C 6,4 km/h (2 Bft) 100 %
01.04.2022 04:10 2,6 C 2,6 C 2,7 C 91 % 996,3 hPa 0,0 l/m 0,0 km/h (0 Bft) N-NW 337 0 min 0,000 mm 0 W/m 1,3 C 2,6 C 6,4 km/h (2 Bft) 100 %
01.04.2022 04:20 2,4 C 2,4 C 2,6 C 91 % 996,2 hPa 0,0 l/m 0,0 km/h (0 Bft) N 0 0 min 0,000 mm 0 W/m 1,1 C 2,4 C 0,0 km/h (0 Bft) 100 %
01.04.2022 04:30 2,3 C 2,3 C 2,4 C 91 % 996,1 hPa 0,2 l/m 0,0 km/h (0 Bft) N 360 0 min 0,000 mm 0 W/m 1,0 C 2,3 C 4,8 km/h (1 Bft) 91 %
01.04.2022 04:40 2,3 C 2,3 C 2,4 C 91 % 996,2 hPa 0,0 l/m 0,0 km/h (0 Bft) N 360 0 min 0,000 mm 0 W/m 1,0 C 2,3 C 1,6 km/h (1 Bft) 100 %
01.04.2022 04:50 2,3 C 2,3 C 2,3 C 91 % 996,1 hPa 0,0 l/m 0,0 km/h (0 Bft) N 360 0 min 0,000 mm 0 W/m 1,0 C 2,3 C 4,8 km/h (1 Bft) 100 %
01.04.2022 05:00 2,2 C 2,2 C 2,3 C 91 % 996,1 hPa 0,0 l/m 0,0 km/h (0 Bft) N 360 0 min 0,000 mm 0 W/m 0,9 C 2,2 C 1,6 km/h (1 Bft) 100 %
01.04.2022 05:10 2,2 C 2,1 C 2,2 C 91 % 996,2 hPa 0,0 l/m 0,0 km/h (0 Bft) N 360 0 min 0,000 mm 0 W/m 0,9 C 2,2 C 4,8 km/h (1 Bft) 100 %
01.04.2022 05:20 2,1 C 2,1 C 2,2 C 91 % 996,2 hPa 0,0 l/m 1,6 km/h (1 Bft) N-NW 337 0 min 0,000 mm 0 W/m 0,8 C 2,1 C 8,0 km/h (2 Bft) 100 %
01.04.2022 05:30 2,1 C 2,1 C 2,1 C 91 % 996,3 hPa 0,0 l/m 0,0 km/h (0 Bft) N 360 0 min 0,000 mm 0 W/m 0,8 C 2,1 C 6,4 km/h (2 Bft) 100 %
01.04.2022 05:40 2,1 C 2,1 C 2,1 C 91 % 996,4 hPa 0,0 l/m 0,0 km/h (0 Bft) N 360 0 min 0,000 mm 0 W/m 0,8 C 2,1 C 6,4 km/h (2 Bft) 100 %
01.04.2022 05:50 2,1 C 2,1 C 2,1 C 91 % 996,5 hPa 0,0 l/m 0,0 km/h (0 Bft) N-NW 337 0 min 0,000 mm 0 W/m 0,8 C 2,1 C 6,4 km/h (2 Bft) 100 %
01.04.2022 06:00 2,1 C 2,1 C 2,1 C 91 % 996,5 hPa 0,0 l/m 0,0 km/h (0 Bft) N-NW 337 0 min 0,000 mm 0 W/m 0,8 C 2,1 C 6,4 km/h (2 Bft) 100 %
01.04.2022 06:10 2,1 C 2,1 C 2,1 C 91 % 996,5 hPa 0,2 l/m 0,0 km/h (0 Bft) N 0 0 min 0,000 mm 0 W/m 0,8 C 2,1 C 0,0 km/h (0 Bft) 87 %
01.04.2022 06:20 2,1 C 2,1 C 2,1 C 91 % 996,5 hPa 0,0 l/m 0,0 km/h (0 Bft) N 0 0 min 0,000 mm 0 W/m 0,8 C 2,1 C 0,0 km/h (0 Bft) 100 %
01.04.2022 06:30 2,2 C 2,1 C 2,2 C 91 % 996,6 hPa 0,0 l/m 0,0 km/h (0 Bft) N 0 0 min 0,000 mm 0 W/m 0,9 C 2,2 C 0,0 km/h (0 Bft) 100 %
01.04.2022 06:40 2,1 C 2,1 C 2,2 C 91 % 996,6 hPa 0,0 l/m 0,0 km/h (0 Bft) N 0 0 min 0,000 mm 0 W/m 0,8 C 2,1 C 0,0 km/h (0 Bft) 100 %
01.04.2022 06:50 2,1 C 2,1 C 2,2 C 91 % 996,8 hPa 0,0 l/m 0,0 km/h (0 Bft) N 0 0 min 0,000 mm 0 W/m 0,8 C 2,1 C 0,0 km/h (0 Bft) 100 %
01.04.2022 07:00 2,1 C 2,1 C 2,1 C 91 % 996,8 hPa 0,0 l/m 0,0 km/h (0 Bft) N 0 0 min 0,000 mm 0 W/m 0,8 C 2,1 C 0,0 km/h (0 Bft) 100 %
01.04.2022 07:10 2,1 C 2,1 C 2,1 C 91 % 996,9 hPa 0,0 l/m 0,0 km/h (0 Bft) N 0 0 min 0,000 mm 0 W/m 0,8 C 2,1 C 0,0 km/h (0 Bft) 100 %
01.04.2022 07:20 2,0 C 2,0 C 2,1 C 91 % 996,9 hPa 0,0 l/m 0,0 km/h (0 Bft) N-NW 337 0 min 0,000 mm 0 W/m 0,7 C 2,0 C 6,4 km/h (2 Bft) 100 %
01.04.2022 07:30 2,0 C 2,0 C 2,0 C 91 % 997,1 hPa 0,2 l/m 0,0 km/h (0 Bft) N-NW 337 0 min 0,000 mm 5 W/m 0,7 C 2,0 C 8,0 km/h (2 Bft) 100 %
01.04.2022 07:40 2,0 C 2,0 C 2,1 C 91 % 997,2 hPa 0,0 l/m 1,6 km/h (1 Bft) N-NW 337 0 min 0,000 mm 7 W/m 0,7 C 2,0 C 8,0 km/h (2 Bft) 100 %
01.04.2022 07:50 2,0 C 2,0 C 2,1 C 91 % 997,4 hPa 0,0 l/m 1,6 km/h (1 Bft) N-NW 337 0 min 0,000 mm 11 W/m 0,7 C 2,0 C 8,0 km/h (2 Bft) 89 %
01.04.2022 08:00 2,0 C 1,9 C 2,0 C 91 % 997,5 hPa 0,0 l/m 1,6 km/h (1 Bft) N-NW 337 0 min 0,000 mm 14 W/m 0,7 C 2,0 C 11,3 km/h (2 Bft) 100 %
01.04.2022 08:10 2,0 C 2,0 C 2,0 C 91 % 997,6 hPa 0,0 l/m 0,0 km/h (0 Bft) N 360 0 min 0,000 mm 19 W/m 0,7 C 2,0 C 3,2 km/h (1 Bft) 99 %
01.04.2022 08:20 2,1 C 2,0 C 2,1 C 91 % 997,6 hPa 0,0 l/m 0,0 km/h (0 Bft) N 360 0 min 0,000 mm 25 W/m 0,8 C 2,1 C 6,4 km/h (2 Bft) 100 %
01.04.2022 08:30 2,1 C 2,0 C 2,1 C 91 % 997,6 hPa 0,0 l/m 1,6 km/h (1 Bft) N-NW 337 0 min 0,000 mm 28 W/m 0,8 C 2,1 C 8,0 km/h (2 Bft) 100 %
01.04.2022 08:40 2,1 C 2,1 C 2,1 C 91 % 997,8 hPa 0,2 l/m 1,6 km/h (1 Bft) N-NW 337 0 min 0,000 mm 33 W/m 0,8 C 2,1 C 9,7 km/h (2 Bft) 100 %
01.04.2022 08:50 2,2 C 2,1 C 2,2 C 91 % 997,8 hPa 0,0 l/m 0,0 km/h (0 Bft) N-NW 337 0 min 0,000 mm 35 W/m 0,9 C 2,2 C 4,8 km/h (1 Bft) 100 %
01.04.2022 09:00 2,2 C 2,2 C 2,2 C 91 % 997,9 hPa 0,0 l/m 0,0 km/h (0 Bft) N-NW 337 0 min 0,000 mm 37 W/m 0,9 C 2,2 C 4,8 km/h (1 Bft) 100 %
01.04.2022 09:10 2,3 C 2,2 C 2,3 C 91 % 997,9 hPa 0,0 l/m 3,2 km/h (1 Bft) N-NW 337 0 min 0,000 mm 47 W/m 1,0 C 2,3 C 11,3 km/h (2 Bft) 100 %
01.04.2022 09:20 2,2 C 2,2 C 2,3 C 91 % 997,9 hPa 0,2 l/m 3,2 km/h (1 Bft) N-NW 337 0 min 0,000 mm 53 W/m 0,9 C 2,2 C 11,3 km/h (2 Bft) 100 %
01.04.2022 09:30 2,2 C 2,2 C 2,3 C 91 % 998,0 hPa 0,0 l/m 4,8 km/h (1 Bft) N-NW 337 0 min 0,000 mm 62 W/m 0,9 C 2,2 C 11,3 km/h (2 Bft) 100 %
01.04.2022 09:40 2,3 C 2,2 C 2,3 C 91 % 998,1 hPa 0,0 l/m 0,0 km/h (0 Bft) N-NW 337 0 min 0,000 mm 70 W/m 1,0 C 2,3 C 6,4 km/h (2 Bft) 100 %
01.04.2022 09:50 2,4 C 2,3 C 2,4 C 91 % 998,1 hPa 0,2 l/m 1,6 km/h (1 Bft) N-NW 337 0 min 0,000 mm 72 W/m 1,1 C 2,4 C 9,7 km/h (2 Bft) 100 %
01.04.2022 10:00 2,4 C 2,4 C 2,4 C 91 % 998,2 hPa 0,0 l/m 1,6 km/h (1 Bft) N-NW 337 0 min 0,025 mm 67 W/m 1,1 C 2,4 C 8,0 km/h (2 Bft) 100 %
01.04.2022 10:10 2,4 C 2,4 C 2,4 C 91 % 998,4 hPa 0,2 l/m 1,6 km/h (1 Bft) N-NW 337 0 min 0,000 mm 63 W/m 1,1 C 2,4 C 9,7 km/h (2 Bft) 100 %
01.04.2022 10:20 2,3 C 2,3 C 2,4 C 91 % 998,4 hPa 0,0 l/m 4,8 km/h (1 Bft) N-NW 337 0 min 0,000 mm 65 W/m 1,0 C 2,3 C 14,5 km/h (3 Bft) 100 %
01.04.2022 10:30 2,2 C 2,2 C 2,3 C 91 % 998,4 hPa 0,0 l/m 3,2 km/h (1 Bft) N-NW 337 0 min 0,000 mm 62 W/m 0,9 C 2,2 C 14,5 km/h (3 Bft) 100 %
01.04.2022 10:40 2,2 C 2,2 C 2,2 C 91 % 998,6 hPa 0,2 l/m 1,6 km/h (1 Bft) N-NW 337 0 min 0,000 mm 93 W/m 0,9 C 2,2 C 14,5 km/h (3 Bft) 100 %
01.04.2022 10:50 2,2 C 2,2 C 2,2 C 91 % 998,8 hPa 0,2 l/m 1,6 km/h (1 Bft) N 360 0 min 0,000 mm 95 W/m 0,9 C 2,2 C 12,9 km/h (3 Bft) 100 %
01.04.2022 11:00 2,2 C 2,1 C 2,2 C 92 % 998,9 hPa 0,0 l/m 3,2 km/h (1 Bft) N-NW 337 0 min 0,025 mm 86 W/m 1,0 C 2,2 C 14,5 km/h (3 Bft) 88 %
01.04.2022 11:10 2,2 C 2,1 C 2,2 C 91 % 999,0 hPa 0,2 l/m 1,6 km/h (1 Bft) N-NW 337 0 min 0,000 mm 100 W/m 0,9 C 2,2 C 9,7 km/h (2 Bft) 100 %
01.04.2022 11:20 2,2 C 2,2 C 2,2 C 91 % 999,1 hPa 0,0 l/m 3,2 km/h (1 Bft) N-NW 337 0 min 0,000 mm 120 W/m 0,9 C 2,2 C 11,3 km/h (2 Bft) 100 %
01.04.2022 11:30 2,2 C 2,2 C 2,2 C 91 % 999,2 hPa 0,2 l/m 1,6 km/h (1 Bft) N-NW 337 0 min 0,000 mm 113 W/m 0,9 C 2,2 C 12,9 km/h (3 Bft) 100 %
01.04.2022 11:40 2,1 C 2,1 C 2,2 C 92 % 999,3 hPa 0,0 l/m 3,2 km/h (1 Bft) N-NW 337 0 min 0,000 mm 105 W/m 0,9 C 2,1 C 14,5 km/h (3 Bft) 100 %
01.04.2022 11:50 2,1 C 2,1 C 2,1 C 92 % 999,3 hPa 0,2 l/m 3,2 km/h (1 Bft) N-NW 337 0 min 0,000 mm 120 W/m 0,9 C 2,1 C 11,3 km/h (2 Bft) 100 %
01.04.2022 12:00 2,2 C 2,1 C 2,2 C 92 % 999,4 hPa 0,2 l/m 0,0 km/h (0 Bft) N-NW 337 0 min 0,025 mm 114 W/m 1,0 C 2,2 C 9,7 km/h (2 Bft) 100 %
01.04.2022 12:10 2,1 C 2,1 C 2,2 C 92 % 999,4 hPa 0,0 l/m 0,0 km/h (0 Bft) N-NW 337 0 min 0,000 mm 118 W/m 0,9 C 2,1 C 6,4 km/h (2 Bft) 100 %
01.04.2022 12:20 2,0 C 1,9 C 2,1 C 91 % 999,5 hPa 0,2 l/m 1,6 km/h (1 Bft) N-NW 337 0 min 0,000 mm 116 W/m 0,7 C 2,0 C 14,5 km/h (3 Bft) 100 %
01.04.2022 12:30 2,0 C 2,0 C 2,1 C 91 % 999,6 hPa 0,0 l/m 1,6 km/h (1 Bft) N 360 0 min 0,000 mm 127 W/m 0,7 C 2,0 C 11,3 km/h (2 Bft) 100 %
01.04.2022 12:40 1,8 C 1,8 C 2,0 C 92 % 999,6 hPa 0,2 l/m 1,6 km/h (1 Bft) N 360 10 min 0,000 mm 160 W/m 0,6 C 1,8 C 14,5 km/h (3 Bft) 100 %
01.04.2022 12:50 1,8 C 1,8 C 1,8 C 92 % 999,7 hPa 0,2 l/m 3,2 km/h (1 Bft) N 360 10 min 0,000 mm 162 W/m 0,6 C 1,8 C 11,3 km/h (2 Bft) 99 %
01.04.2022 13:00 1,8 C 1,8 C 1,9 C 92 % 999,8 hPa 0,0 l/m 1,6 km/h (1 Bft) N-NO 22 10 min 0,051 mm 155 W/m 0,6 C 1,8 C 11,3 km/h (2 Bft) 100 %
01.04.2022 13:10 1,8 C 1,8 C 1,8 C 92 % 999,8 hPa 0,0 l/m 1,6 km/h (1 Bft) N 360 0 min 0,000 mm 144 W/m 0,6 C 1,8 C 16,1 km/h (3 Bft) 100 %
01.04.2022 13:20 1,8 C 1,8 C 1,8 C 92 % 1000,0 hPa 0,2 l/m 0,0 km/h (0 Bft) N 360 0 min 0,000 mm 128 W/m 0,6 C 1,8 C 4,8 km/h (1 Bft) 100 %
01.04.2022 13:30 1,7 C 1,7 C 1,8 C 92 % 1000,0 hPa 0,2 l/m 1,6 km/h (1 Bft) N 360 0 min 0,000 mm 121 W/m 0,5 C 1,7 C 9,7 km/h (2 Bft) 99 %
01.04.2022 13:40 1,4 C 1,4 C 1,7 C 92 % 1000,0 hPa 0,0 l/m 0,0 km/h (0 Bft) N 360 0 min 0,000 mm 137 W/m 0,2 C 1,4 C 8,0 km/h (2 Bft) 100 %
01.04.2022 13:50 1,2 C 1,2 C 1,4 C 92 % 1000,4 hPa 0,2 l/m 0,0 km/h (0 Bft) N-NW 337 0 min 0,000 mm 135 W/m 0,0 C 1,2 C 8,0 km/h (2 Bft) 100 %
01.04.2022 14:00 0,9 C 0,9 C 1,2 C 92 % 1000,3 hPa 0,0 l/m 1,6 km/h (1 Bft) N 360 0 min 0,051 mm 130 W/m -0,2 C 0,9 C 12,9 km/h (3 Bft) 100 %
01.04.2022 14:10 0,8 C 0,8 C 0,9 C 92 % 1000,3 hPa 0,2 l/m 0,0 km/h (0 Bft) N-NO 22 0 min 0,000 mm 120 W/m -0,3 C 0,8 C 8,0 km/h (2 Bft) 100 %
01.04.2022 14:30 1,1 C 0,8 C 1,1 C 91 % 1000,4 hPa 0,0 l/m 2,1 km/h (1 Bft) N 350 0 min 0,001 mm 130 W/m -0,2 C 1,1 C 9,7 km/h (2 Bft) 97 %
01.04.2022 14:40 1,1 C 1,1 C 1,1 C 92 % 1000,4 hPa 0,0 l/m 1,2 km/h (1 Bft) N-NW 348 0 min 0,000 mm 128 W/m -0,1 C 1,1 C 9,7 km/h (2 Bft) 98 %
01.04.2022 14:50 1,1 C 1,1 C 1,1 C 98 % 1000,4 hPa 0,2 l/m 0,5 km/h (0 Bft) N-NO 17 0 min 0,000 mm 91 W/m 0,8 C 1,1 C 9,7 km/h (2 Bft) 98 %
01.04.2022 15:00 0,9 C 0,9 C 1,1 C 92 % 1000,4 hPa 0,0 l/m 2,3 km/h (1 Bft) N-NO 27 0 min 0,051 mm 63 W/m -0,2 C 0,9 C 17,7 km/h (3 Bft) 97 %
01.04.2022 15:10 0,8 C 0,8 C 0,9 C 92 % 1000,6 hPa 0,2 l/m 0,4 km/h (0 Bft) N 355 0 min 0,000 mm 109 W/m -0,3 C 0,8 C 9,7 km/h (2 Bft) 98 %
01.04.2022 15:20 0,7 C 0,7 C 0,8 C 92 % 1000,5 hPa 0,2 l/m 0,0 km/h (0 Bft) N 360 0 min 0,000 mm 125 W/m -0,4 C 0,7 C 0,0 km/h (0 Bft) 97 %
01.04.2022 15:30 0,7 C 0,7 C 0,7 C 92 % 1000,6 hPa 0,0 l/m 0,7 km/h (0 Bft) N-NO 17 0 min 0,000 mm 83 W/m -0,4 C 0,7 C 9,7 km/h (2 Bft) 97 %
01.04.2022 15:40 0,5 C 0,5 C 0,7 C 92 % 1000,7 hPa 0,2 l/m 1,5 km/h (1 Bft) N-NW 336 0 min 0,000 mm 137 W/m -0,6 C 0,5 C 16,1 km/h (3 Bft) 97 %
01.04.2022 15:50 0,6 C 0,5 C 0,6 C 91 % 1000,7 hPa 0,2 l/m 1,3 km/h (1 Bft) N 5 0 min 0,000 mm 132 W/m -0,7 C 0,6 C 11,3 km/h (2 Bft) 97 %
01.04.2022 16:00 0,7 C 0,6 C 0,7 C 92 % 1000,8 hPa 0,2 l/m 0,3 km/h (0 Bft) N-NO 14 0 min 0,050 mm 121 W/m -0,4 C 0,7 C 11,3 km/h (2 Bft) 97 %
01.04.2022 16:10 0,8 C 0,7 C 0,8 C 92 % 1000,8 hPa 0,0 l/m 1,2 km/h (1 Bft) N 355 0 min 0,000 mm 102 W/m -0,3 C 0,8 C 8,0 km/h (2 Bft) 97 %
01.04.2022 16:20 0,7 C 0,7 C 0,8 C 92 % 1000,9 hPa 0,2 l/m 0,0 km/h (0 Bft) N 355 0 min 0,000 mm 134 W/m -0,4 C 0,7 C 0,0 km/h (0 Bft) 98 %
01.04.2022 16:30 0,7 C 0,7 C 0,7 C 92 % 1001,1 hPa 0,2 l/m 0,1 km/h (0 Bft) N 355 0 min 0,000 mm 125 W/m -0,4 C 0,7 C 3,2 km/h (1 Bft) 97 %
01.04.2022 16:40 0,8 C 0,7 C 0,8 C 92 % 1001,3 hPa 0,0 l/m 1,9 km/h (1 Bft) N 355 0 min 0,000 mm 134 W/m -0,3 C 0,8 C 11,3 km/h (2 Bft) 98 %
01.04.2022 16:50 0,8 C 0,8 C 0,8 C 92 % 1001,3 hPa 0,2 l/m 1,2 km/h (1 Bft) N-NO 13 0 min 0,000 mm 139 W/m -0,3 C 0,8 C 9,7 km/h (2 Bft) 98 %
01.04.2022 17:00 0,7 C 0,7 C 0,8 C 92 % 1001,4 hPa 0,0 l/m 1,1 km/h (1 Bft) N-NO 24 0 min 0,051 mm 137 W/m -0,4 C 0,7 C 16,1 km/h (3 Bft) 98 %
01.04.2022 17:10 0,7 C 0,6 C 0,7 C 91 % 1001,5 hPa 0,0 l/m 1,8 km/h (1 Bft) N 5 0 min 0,000 mm 132 W/m -0,6 C 0,7 C 17,7 km/h (3 Bft) 100 %
01.04.2022 17:20 0,8 C 0,7 C 0,8 C 92 % 1001,7 hPa 0,0 l/m 2,0 km/h (1 Bft) N-NO 17 0 min 0,000 mm 105 W/m -0,3 C 0,8 C 12,9 km/h (3 Bft) 91 %
01.04.2022 17:30 0,8 C 0,8 C 0,9 C 92 % 1001,7 hPa 0,0 l/m 1,6 km/h (1 Bft) N-NO 32 0 min 0,000 mm 100 W/m -0,3 C 0,8 C 16,1 km/h (3 Bft) 100 %
01.04.2022 17:40 0,9 C 0,8 C 0,9 C 92 % 1001,7 hPa 0,0 l/m 0,0 km/h (0 Bft) N-NO 20 0 min 0,000 mm 86 W/m -0,2 C 0,9 C 0,0 km/h (0 Bft) 99 %
01.04.2022 17:50 0,9 C 0,9 C 0,9 C 92 % 1001,8 hPa 0,0 l/m 1,0 km/h (0 Bft) N-NW 344 0 min 0,000 mm 74 W/m -0,2 C 0,9 C 8,0 km/h (2 Bft) 100 %
01.04.2022 18:00 0,9 C 0,9 C 1,0 C 92 % 1001,9 hPa 0,2 l/m 1,9 km/h (1 Bft) N 350 0 min 0,026 mm 88 W/m -0,2 C 0,9 C 14,5 km/h (3 Bft) 99 %
01.04.2022 18:10 0,8 C 0,8 C 0,9 C 92 % 1002,2 hPa 0,0 l/m 1,8 km/h (1 Bft) N-NO 17 0 min 0,000 mm 65 W/m -0,3 C 0,8 C 14,5 km/h (3 Bft) 100 %
01.04.2022 18:20 0,8 C 0,8 C 0,8 C 92 % 1002,1 hPa 0,0 l/m 1,4 km/h (1 Bft) N-NW 344 0 min 0,000 mm 42 W/m -0,3 C 0,8 C 11,3 km/h (2 Bft) 99 %
01.04.2022 18:30 0,7 C 0,7 C 0,8 C 92 % 1002,5 hPa 0,0 l/m 0,9 km/h (0 Bft) N 351 0 min 0,000 mm 39 W/m -0,4 C 0,7 C 9,7 km/h (2 Bft) 100 %
01.04.2022 18:40 0,6 C 0,6 C 0,7 C 92 % 1002,5 hPa 0,0 l/m 0,2 km/h (0 Bft) N 5 0 min 0,000 mm 35 W/m -0,5 C 0,6 C 9,7 km/h (2 Bft) 99 %
01.04.2022 18:50 0,5 C 0,5 C 0,6 C 92 % 1002,6 hPa 0,0 l/m 0,2 km/h (0 Bft) N 355 0 min 0,000 mm 32 W/m -0,6 C 0,5 C 6,4 km/h (2 Bft) 100 %
01.04.2022 19:00 0,4 C 0,4 C 0,5 C 92 % 1002,7 hPa 0,0 l/m 0,0 km/h (0 Bft) N 355 0 min 0,025 mm 26 W/m -0,7 C 0,4 C 0,0 km/h (0 Bft) 100 %
01.04.2022 19:10 0,3 C 0,3 C 0,4 C 92 % 1002,8 hPa 0,0 l/m 0,1 km/h (0 Bft) N 360 0 min 0,000 mm 21 W/m -0,8 C 0,3 C 6,4 km/h (2 Bft) 100 %
01.04.2022 19:20 0,3 C 0,3 C 0,3 C 92 % 1002,9 hPa 0,0 l/m 0,5 km/h (0 Bft) N 349 0 min 0,000 mm 16 W/m -0,8 C 0,3 C 6,4 km/h (2 Bft) 100 %
01.04.2022 19:30 0,3 C 0,3 C 0,3 C 92 % 1002,8 hPa 0,0 l/m 1,2 km/h (1 Bft) N-NO 15 0 min 0,000 mm 12 W/m -0,8 C 0,3 C 9,7 km/h (2 Bft) 100 %
01.04.2022 19:40 0,1 C 0,1 C 0,3 C 92 % 1002,9 hPa 0,0 l/m 0,9 km/h (0 Bft) N 355 0 min 0,000 mm 5 W/m -1,0 C 0,1 C 11,3 km/h (2 Bft) 100 %
01.04.2022 19:50 0,0 C 0,0 C 0,1 C 92 % 1003,0 hPa 0,0 l/m 0,6 km/h (0 Bft) N 349 0 min 0,000 mm 0 W/m -1,1 C 0,0 C 8,0 km/h (2 Bft) 100 %
01.04.2022 20:00 -0,1 C -0,1 C 0,0 C 92 % 1003,0 hPa 0,2 l/m 0,5 km/h (0 Bft) N 355 0 min 0,000 mm 0 W/m -1,2 C -0,1 C 6,4 km/h (2 Bft) 100 %
01.04.2022 20:10 -0,1 C -0,1 C -0,1 C 92 % 1003,1 hPa 0,0 l/m 0,5 km/h (0 Bft) N 349 0 min 0,000 mm 0 W/m -1,2 C -0,1 C 8,0 km/h (2 Bft) 100 %
01.04.2022 20:20 -0,1 C -0,1 C -0,1 C 92 % 1003,4 hPa 0,0 l/m 0,4 km/h (0 Bft) N 350 0 min 0,000 mm 0 W/m -1,2 C -0,1 C 6,4 km/h (2 Bft) 100 %
01.04.2022 20:30 0,0 C -0,1 C 0,0 C 92 % 1003,5 hPa 0,0 l/m 0,1 km/h (0 Bft) N 349 0 min 0,000 mm 0 W/m -1,1 C 0,0 C 3,2 km/h (1 Bft) 100 %
01.04.2022 20:40 0,1 C 0,0 C 0,1 C 92 % 1003,6 hPa 0,0 l/m 0,6 km/h (0 Bft) N 360 0 min 0,000 mm 0 W/m -1,0 C 0,1 C 8,0 km/h (2 Bft) 100 %
01.04.2022 20:50 0,1 C 0,1 C 0,1 C 92 % 1003,7 hPa 0,0 l/m 1,2 km/h (1 Bft) N 360 0 min 0,000 mm 0 W/m -1,0 C 0,1 C 14,5 km/h (3 Bft) 100 %
01.04.2022 21:00 0,0 C 0,0 C 0,1 C 92 % 1003,8 hPa 0,0 l/m 0,4 km/h (0 Bft) N-NW 346 0 min 0,000 mm 0 W/m -1,1 C 0,0 C 4,8 km/h (1 Bft) 100 %
01.04.2022 21:10 -0,1 C -0,1 C 0,0 C 92 % 1003,9 hPa 0,0 l/m 1,5 km/h (1 Bft) N-NW 346 0 min 0,000 mm 0 W/m -1,2 C -0,1 C 9,7 km/h (2 Bft) 100 %
01.04.2022 21:20 0,0 C -0,1 C 0,0 C 92 % 1004,1 hPa 0,0 l/m 0,9 km/h (0 Bft) N-NW 341 0 min 0,000 mm 0 W/m -1,1 C 0,0 C 6,4 km/h (2 Bft) 100 %
01.04.2022 21:30 0,0 C -0,1 C 0,1 C 92 % 1004,1 hPa 0,0 l/m 1,2 km/h (1 Bft) N-NW 331 0 min 0,000 mm 0 W/m -1,1 C 0,0 C 9,7 km/h (2 Bft) 100 %
01.04.2022 21:40 0,1 C 0,0 C 0,1 C 92 % 1004,3 hPa 0,0 l/m 1,2 km/h (1 Bft) N-NW 344 0 min 0,000 mm 0 W/m -1,0 C 0,1 C 8,0 km/h (2 Bft) 100 %
01.04.2022 21:50 0,2 C 0,1 C 0,2 C 92 % 1004,3 hPa 0,0 l/m 1,0 km/h (0 Bft) N-NW 341 0 min 0,000 mm 0 W/m -0,9 C 0,2 C 8,0 km/h (2 Bft) 99 %
01.04.2022 22:00 0,2 C 0,2 C 0,3 C 92 % 1004,4 hPa 0,0 l/m 0,4 km/h (0 Bft) N-NW 346 0 min 0,000 mm 0 W/m -0,9 C 0,2 C 6,4 km/h (2 Bft) 100 %
01.04.2022 22:10 0,3 C 0,2 C 0,3 C 92 % 1004,4 hPa 0,2 l/m 0,5 km/h (0 Bft) N-NW 347 0 min 0,000 mm 0 W/m -0,8 C 0,3 C 6,4 km/h (2 Bft) 100 %
01.04.2022 22:20 0,2 C 0,2 C 0,3 C 92 % 1004,5 hPa 0,0 l/m 0,6 km/h (0 Bft) N-NW 342 0 min 0,000 mm 0 W/m -0,9 C 0,2 C 6,4 km/h (2 Bft) 100 %
01.04.2022 22:30 0,1 C 0,1 C 0,2 C 92 % 1004,6 hPa 0,0 l/m 0,7 km/h (0 Bft) N 355 0 min 0,000 mm 0 W/m -1,0 C 0,1 C 4,8 km/h (1 Bft) 100 %
01.04.2022 22:40 0,0 C 0,0 C 0,1 C 92 % 1004,5 hPa 0,0 l/m 0,2 km/h (0 Bft) N 355 0 min 0,000 mm 0 W/m -1,1 C 0,0 C 6,4 km/h (2 Bft) 100 %
01.04.2022 22:50 -0,1 C -0,1 C 0,0 C 92 % 1004,5 hPa 0,0 l/m 1,1 km/h (1 Bft) N-NW 342 0 min 0,000 mm 0 W/m -1,2 C -0,1 C 8,0 km/h (2 Bft) 100 %
01.04.2022 23:00 -0,2 C -0,2 C -0,1 C 92 % 1004,6 hPa 0,0 l/m 0,4 km/h (0 Bft) N-NW 344 0 min 0,000 mm 0 W/m -1,3 C -0,2 C 6,4 km/h (2 Bft) 100 %
01.04.2022 23:10 -0,2 C -0,2 C -0,2 C 92 % 1004,6 hPa 0,4 l/m 0,9 km/h (0 Bft) N-NW 340 0 min 0,000 mm 0 W/m -1,3 C -0,2 C 8,0 km/h (2 Bft) 100 %
01.04.2022 23:20 -0,2 C -0,2 C -0,2 C 92 % 1004,6 hPa 0,2 l/m 0,6 km/h (0 Bft) N 5 0 min 0,000 mm 0 W/m -1,3 C -0,2 C 8,0 km/h (2 Bft) 100 %
01.04.2022 23:30 -0,2 C -0,2 C -0,1 C 92 % 1004,7 hPa 0,0 l/m 0,4 km/h (0 Bft) N 350 0 min 0,000 mm 0 W/m -1,3 C -0,2 C 8,0 km/h (2 Bft) 100 %
01.04.2022 23:40 -0,1 C -0,2 C -0,1 C 92 % 1004,7 hPa 0,2 l/m 0,3 km/h (0 Bft) N 355 0 min 0,000 mm 0 W/m -1,2 C -0,1 C 6,4 km/h (2 Bft) 99 %
01.04.2022 23:50 -0,1 C -0,2 C -0,1 C 92 % 1004,7 hPa 0,0 l/m 0,2 km/h (0 Bft) N 351 0 min 0,000 mm 0 W/m -1,2 C -0,1 C 6,4 km/h (2 Bft) 100 %
_ Min-Zeit 23:00 23:00 23:10 00:00 00:00 - 00:00 - - - - - 23:00 23:00 00:00 06:10
Minimum _ -0,2 C -0,2 C -0,2 C 91 % 996,0 hPa - 0,0 km/h (0 Bft) - - - - - -1,3 C -0,2 C 0,0 km/h (0 Bft) 87 %
_ Max-Zeit 00:00 00:00 00:00 14:50 23:30 23:10 09:30 - - 12:40 13:00 12:50 00:00 00:00 15:00 00:20
Maximum _ 4,3 C 4,3 C 4,3 C 98 % 1004,7 hPa 0,4 l/m 4,8 km/h
N-NW (1 Bft)
- - 10 min 0,051 mm 162 W/m 3,0 C 4,3 C 17,7 km/h
NW (3 Bft)
100 %
Durchschnitt _ 1,6 C 1,6 C 1,7 C 92 % 999,5 hPa #11,2 l/m 0,8 km/h (0 Bft) N-NW - #30 min. #0,381 mm 86 W/m 0,4 C 1,6 C 7,3 km/h (2 Bft) 99 %
PRIVATE WETTERSTATION BILLIGHEIM-ALLFELD - www.neckar-odenwald-wetter.de - Holger Sonntag